createdAt,value
2022-11-30T00:02:23.336Z,4.46
2022-11-30T00:07:15.152Z,4.44
2022-11-30T00:12:07.506Z,4.48
2022-11-30T00:16:59.373Z,4.46
2022-11-30T00:21:51.103Z,4.46
2022-11-30T00:26:42.703Z,4.45
2022-11-30T00:31:34.423Z,4.45
2022-11-30T00:36:26.035Z,4.43
2022-11-30T00:41:18.950Z,4.40
2022-11-30T00:46:11.976Z,4.37
2022-11-30T00:51:04.408Z,4.29
2022-11-30T00:55:56.172Z,4.26
2022-11-30T01:00:48.384Z,4.26
2022-11-30T01:05:41.091Z,4.25
2022-11-30T01:10:34.290Z,4.27
2022-11-30T01:15:26.060Z,4.23
2022-11-30T01:20:18.371Z,4.24
2022-11-30T01:25:10.780Z,4.23
2022-11-30T01:30:02.624Z,4.21
2022-11-30T01:34:54.574Z,4.16
2022-11-30T01:39:46.276Z,4.13
2022-11-30T01:44:57.280Z,4.17
2022-11-30T01:49:54.036Z,4.18
2022-11-30T01:54:52.018Z,4.18
2022-11-30T01:59:44.174Z,4.16
2022-11-30T02:04:38.318Z,4.14
2022-11-30T02:09:31.582Z,4.13
2022-11-30T02:14:27.981Z,4.17
2022-11-30T02:19:52.010Z,4.13
2022-11-30T02:24:50.928Z,4.13
2022-11-30T02:29:47.322Z,4.08
2022-11-30T02:34:42.240Z,4.03
2022-11-30T02:39:34.497Z,4.03
2022-11-30T02:44:27.569Z,4.03
2022-11-30T02:49:34.112Z,4.02
2022-11-30T02:54:26.070Z,3.95
2022-11-30T02:59:18.236Z,3.90
2022-11-30T03:04:09.879Z,3.83
2022-11-30T03:09:01.608Z,3.86
2022-11-30T03:13:53.236Z,3.88
2022-11-30T03:18:46.083Z,3.93
2022-11-30T03:23:39.019Z,3.91
2022-11-30T03:28:30.688Z,3.91
2022-11-30T03:33:22.347Z,3.92
2022-11-30T03:38:14.042Z,3.90
2022-11-30T03:43:05.679Z,3.87
2022-11-30T03:47:57.424Z,3.79
2022-11-30T03:52:49.204Z,3.73
2022-11-30T03:57:40.882Z,3.70
2022-11-30T04:02:32.907Z,3.69
2022-11-30T04:07:24.652Z,3.66
2022-11-30T04:12:16.645Z,3.60
2022-11-30T04:17:08.473Z,3.59
2022-11-30T04:22:00.054Z,3.59
2022-11-30T04:26:51.753Z,3.57
2022-11-30T04:31:43.400Z,3.61
2022-11-30T04:36:35.132Z,3.62
2022-11-30T04:41:26.802Z,3.62
2022-11-30T04:46:18.650Z,3.61
2022-11-30T04:51:10.495Z,3.56
2022-11-30T04:56:10.596Z,3.52
2022-11-30T05:01:02.409Z,3.51
2022-11-30T05:05:54.185Z,3.43
2022-11-30T05:10:50.163Z,3.36
2022-11-30T05:15:45.839Z,3.31
2022-11-30T05:20:37.583Z,3.33
2022-11-30T05:25:29.202Z,3.26
2022-11-30T05:30:20.978Z,3.20
2022-11-30T05:35:12.872Z,3.15
2022-11-30T05:40:05.258Z,3.19
2022-11-30T05:44:57.081Z,3.12
2022-11-30T05:49:48.812Z,3.11
2022-11-30T05:54:40.700Z,3.05
2022-11-30T05:59:32.505Z,3.05
2022-11-30T06:04:24.252Z,3.06
2022-11-30T06:09:15.986Z,3.03
2022-11-30T06:14:08.190Z,3.07
2022-11-30T06:18:59.742Z,3.11
2022-11-30T06:23:51.752Z,3.14
2022-11-30T06:28:48.491Z,3.13
2022-11-30T06:33:40.429Z,3.08
2022-11-30T06:38:32.171Z,3.10
2022-11-30T06:43:23.977Z,3.13
2022-11-30T06:48:15.903Z,3.15
2022-11-30T06:53:07.682Z,3.17
2022-11-30T06:58:06.468Z,3.28
2022-11-30T07:02:58.253Z,3.32
2022-11-30T07:07:49.960Z,3.34
2022-11-30T07:12:41.701Z,3.33
2022-11-30T07:17:33.381Z,3.28
2022-11-30T07:22:25.008Z,3.27
2022-11-30T07:27:17.073Z,3.29
2022-11-30T07:32:08.755Z,3.30
2022-11-30T07:37:00.517Z,3.21
2022-11-30T07:41:52.127Z,3.14
2022-11-30T07:46:43.901Z,3.14
2022-11-30T07:51:36.443Z,3.08
2022-11-30T07:56:29.491Z,3.05
2022-11-30T08:01:24.110Z,3.06
2022-11-30T08:06:24.728Z,3.04
2022-11-30T08:11:19.409Z,3.03
2022-11-30T08:16:14.128Z,3.03
2022-11-30T08:21:07.990Z,3.05
2022-11-30T08:26:04.603Z,3.07
2022-11-30T08:31:01.466Z,3.14
2022-11-30T08:35:53.056Z,3.17
2022-11-30T08:40:44.683Z,3.19
2022-11-30T08:45:36.332Z,3.26
2022-11-30T08:50:28.196Z,3.27
2022-11-30T08:55:19.807Z,3.32
2022-11-30T09:00:12.434Z,3.36
2022-11-30T09:05:04.375Z,3.44
2022-11-30T09:09:56.027Z,3.48
2022-11-30T09:14:53.862Z,3.55
2022-11-30T09:19:49.244Z,3.63
2022-11-30T09:24:41.527Z,3.65
2022-11-30T09:29:33.531Z,3.70
2022-11-30T09:34:25.187Z,3.74
2022-11-30T09:39:16.904Z,3.79
2022-11-30T09:44:26.701Z,3.88
2022-11-30T09:49:29.967Z,3.88
2022-11-30T09:54:41.417Z,3.90
2022-11-30T09:59:37.912Z,3.92
2022-11-30T10:04:30.278Z,3.94
2022-11-30T10:09:40.132Z,3.97
2022-11-30T10:15:00.981Z,3.99
2022-11-30T10:20:12.370Z,4.03
2022-11-30T10:25:44.220Z,4.04
2022-11-30T10:30:36.964Z,4.01
2022-11-30T10:35:37.767Z,4.02
2022-11-30T10:40:52.788Z,4.02
2022-11-30T10:45:50.426Z,4.05
2022-11-30T10:50:42.342Z,4.01
2022-11-30T10:55:52.406Z,4.04
2022-11-30T11:00:58.542Z,4.06
2022-11-30T11:06:08.239Z,3.97
2022-11-30T11:11:00.027Z,3.97
2022-11-30T11:16:01.634Z,3.97
2022-11-30T11:21:06.258Z,3.92
2022-11-30T11:25:58.917Z,3.97
2022-11-30T11:30:57.279Z,3.93
2022-11-30T11:35:52.450Z,4.03
2022-11-30T11:41:05.588Z,4.08
2022-11-30T11:46:01.917Z,4.04
2022-11-30T11:51:08.002Z,4.02
2022-11-30T11:56:08.139Z,4.06
2022-11-30T12:01:31.693Z,4.09
2022-11-30T12:06:18.964Z,4.12
2022-11-30T12:11:21.553Z,4.14
2022-11-30T12:16:16.146Z,4.16
2022-11-30T12:21:14.746Z,4.19
2022-11-30T12:26:21.660Z,4.25
2022-11-30T12:31:15.909Z,4.23
2022-11-30T12:36:32.540Z,4.22
2022-11-30T12:41:37.122Z,4.19
2022-11-30T12:46:43.596Z,4.19
2022-11-30T12:51:44.113Z,4.26
2022-11-30T12:56:51.934Z,4.33
2022-11-30T13:02:06.989Z,4.41
2022-11-30T13:07:03.598Z,4.46
2022-11-30T13:12:02.028Z,4.47
2022-11-30T13:17:03.027Z,4.51
2022-11-30T13:22:01.317Z,4.57
2022-11-30T13:26:59.580Z,4.60
2022-11-30T13:32:33.871Z,4.59
2022-11-30T13:37:27.393Z,4.61
2022-11-30T13:42:51.437Z,4.65
2022-11-30T13:47:50.201Z,4.70
2022-11-30T13:53:00.676Z,4.74
2022-11-30T13:57:52.324Z,4.74
2022-11-30T14:07:59.449Z,4.84
2022-11-30T14:13:02.018Z,4.87
2022-11-30T14:17:57.344Z,4.90
2022-11-30T14:22:50.880Z,4.90
2022-11-30T14:27:43.774Z,4.88
2022-11-30T14:32:42.493Z,4.87
2022-11-30T14:38:00.255Z,4.95
2022-11-30T14:43:01.476Z,4.98
2022-11-30T14:48:05.166Z,4.98
2022-11-30T14:53:33.550Z,5.01
2022-11-30T14:58:44.616Z,5.05
2022-11-30T15:03:40.591Z,5.05
2022-11-30T15:08:47.993Z,5.08
2022-11-30T15:13:43.088Z,5.07
2022-11-30T15:18:40.143Z,5.10
2022-11-30T15:23:31.981Z,5.10
2022-11-30T15:28:47.348Z,5.11
2022-11-30T15:33:49.819Z,5.11
2022-11-30T15:38:43.094Z,5.04
2022-11-30T15:43:39.671Z,5.04
2022-11-30T15:48:35.434Z,5.05
2022-11-30T15:53:30.323Z,5.04
2022-11-30T15:58:45.640Z,5.01
2022-11-30T16:03:55.722Z,5.02
2022-11-30T16:08:48.270Z,4.97
2022-11-30T16:13:41.232Z,4.94
2022-11-30T16:18:33.190Z,4.88
2022-11-30T16:23:26.105Z,4.91
2022-11-30T16:28:19.380Z,4.93
2022-11-30T16:33:16.763Z,4.95
2022-11-30T16:38:08.462Z,4.96
2022-11-30T16:43:00.450Z,4.97
2022-11-30T16:47:52.720Z,4.99
2022-11-30T16:52:45.324Z,5.02
2022-11-30T16:57:37.019Z,4.97
2022-11-30T17:02:28.850Z,5.00
2022-11-30T17:07:20.635Z,5.00
2022-11-30T17:12:12.325Z,4.99
2022-11-30T17:17:04.125Z,4.97
2022-11-30T17:21:56.074Z,4.99
2022-11-30T17:26:47.885Z,4.96
2022-11-30T17:31:39.644Z,4.92
2022-11-30T17:36:31.371Z,4.96
2022-11-30T17:41:23.042Z,4.99
2022-11-30T17:46:17.393Z,5.01
2022-11-30T17:51:09.686Z,5.02
2022-11-30T17:56:09.788Z,4.99
2022-11-30T18:01:01.578Z,4.97
2022-11-30T18:05:53.437Z,4.95
2022-11-30T18:10:47.654Z,4.93
2022-11-30T18:15:39.362Z,4.95
2022-11-30T18:20:31.082Z,4.94
2022-11-30T18:25:22.884Z,4.92
2022-11-30T18:30:14.741Z,4.93
2022-11-30T18:35:07.106Z,4.92
2022-11-30T18:39:58.818Z,4.94
2022-11-30T18:44:50.801Z,4.93
2022-11-30T18:49:42.748Z,4.94
2022-11-30T18:54:34.630Z,4.97
2022-11-30T18:59:26.411Z,4.96
2022-11-30T19:04:18.247Z,4.93
2022-11-30T19:09:14.351Z,4.95
2022-11-30T19:14:06.451Z,4.99
2022-11-30T19:19:06.547Z,5.00
2022-11-30T19:23:58.684Z,5.04
2022-11-30T19:28:56.691Z,5.09
2022-11-30T19:33:51.220Z,5.07
2022-11-30T19:38:43.126Z,5.09
2022-11-30T19:43:35.196Z,5.08
2022-11-30T19:48:27.039Z,5.14
2022-11-30T19:53:18.798Z,5.12
2022-11-30T19:58:10.476Z,5.13
2022-11-30T20:03:09.720Z,5.12
2022-11-30T20:08:01.834Z,5.11
2022-11-30T20:12:53.621Z,5.14
2022-11-30T20:17:45.335Z,5.12
2022-11-30T20:22:37.020Z,5.14
2022-11-30T20:27:28.827Z,5.14
2022-11-30T20:32:20.628Z,5.15
2022-11-30T20:37:12.663Z,5.08
2022-11-30T20:42:04.725Z,5.11
2022-11-30T20:46:56.410Z,5.11
2022-11-30T20:51:48.982Z,5.08
2022-11-30T20:56:40.990Z,5.04
2022-11-30T21:01:33.587Z,5.01
2022-11-30T21:06:25.486Z,5.08
2022-11-30T21:11:19.315Z,5.08
2022-11-30T21:16:12.853Z,5.04
2022-11-30T21:21:07.376Z,4.98
2022-11-30T21:26:36.178Z,5.01
2022-11-30T21:31:28.486Z,5.01
2022-11-30T21:36:20.929Z,4.99
2022-11-30T21:41:14.200Z,4.96
2022-11-30T21:46:08.365Z,4.97
2022-11-30T21:51:05.782Z,4.96
2022-11-30T21:56:03.968Z,4.96
2022-11-30T22:01:00.018Z,4.93
2022-11-30T22:06:01.989Z,4.96
2022-11-30T22:10:53.739Z,4.93
2022-11-30T22:15:45.559Z,4.94
2022-11-30T22:20:37.275Z,4.94
2022-11-30T22:25:29.016Z,4.97
2022-11-30T22:30:20.714Z,4.98
2022-11-30T22:35:12.581Z,4.97
2022-11-30T22:40:04.666Z,4.95
2022-11-30T22:44:56.384Z,4.95
2022-11-30T22:49:48.450Z,4.95
2022-11-30T22:54:40.382Z,4.97
2022-11-30T22:59:32.111Z,5.00
2022-11-30T23:04:23.969Z,5.01
2022-11-30T23:09:19.178Z,5.01
2022-11-30T23:14:12.228Z,5.01
2022-11-30T23:19:05.429Z,5.04
2022-11-30T23:23:59.667Z,5.04
2022-11-30T23:28:52.812Z,5.02
2022-11-30T23:33:44.788Z,5.02
2022-11-30T23:38:37.187Z,5.06
2022-11-30T23:43:29.001Z,5.07
2022-11-30T23:48:20.678Z,5.08
2022-11-30T23:53:12.502Z,5.08
2022-11-30T23:58:04.253Z,5.06
